createdAt,value
2022-11-10T00:00:35.726Z,10.93
2022-11-10T00:03:03.577Z,11.00
2022-11-10T00:05:30.444Z,10.85
2022-11-10T00:07:56.944Z,10.92
2022-11-10T00:10:23.711Z,10.85
2022-11-10T00:12:50.105Z,10.76
2022-11-10T00:15:16.765Z,10.73
2022-11-10T00:17:43.558Z,10.59
2022-11-10T00:20:11.105Z,10.49
2022-11-10T00:22:39.215Z,10.62
2022-11-10T00:25:06.345Z,10.57
2022-11-10T00:27:33.890Z,10.38
2022-11-10T00:30:00.829Z,10.28
2022-11-10T00:32:27.449Z,10.27
2022-11-10T00:34:53.786Z,10.22
2022-11-10T00:37:20.099Z,10.26
2022-11-10T00:39:46.416Z,10.09
2022-11-10T00:42:12.764Z,10.04
2022-11-10T00:44:39.080Z,9.98
2022-11-10T00:47:05.703Z,9.95
2022-11-10T00:49:32.011Z,9.94
2022-11-10T00:51:58.545Z,9.91
2022-11-10T00:54:24.878Z,9.83
2022-11-10T00:56:51.196Z,9.82
2022-11-10T00:59:17.503Z,9.79
2022-11-10T01:01:43.847Z,9.83
2022-11-10T01:04:10.173Z,9.74
2022-11-10T01:06:36.673Z,9.67
2022-11-10T01:09:04.002Z,9.65
2022-11-10T01:11:30.346Z,9.66
2022-11-10T01:13:57.540Z,9.66
2022-11-10T01:16:32.678Z,9.62
2022-11-10T01:19:01.153Z,9.57
2022-11-10T01:21:29.233Z,9.71
2022-11-10T01:23:56.507Z,9.66
2022-11-10T01:26:23.498Z,9.73
2022-11-10T01:28:49.952Z,9.76
2022-11-10T01:31:19.116Z,9.67
2022-11-10T01:33:45.710Z,9.78
2022-11-10T01:36:12.913Z,9.76
2022-11-10T01:38:42.017Z,9.70
2022-11-10T01:41:10.830Z,9.55
2022-11-10T01:43:37.605Z,9.47
2022-11-10T01:46:11.987Z,9.48
2022-11-10T01:48:49.576Z,9.43
2022-11-10T01:51:23.102Z,9.45
2022-11-10T01:53:54.432Z,9.41
2022-11-10T01:56:21.454Z,9.48
2022-11-10T01:58:53.686Z,9.48
2022-11-10T02:01:20.324Z,9.46
2022-11-10T02:03:56.014Z,9.37
2022-11-10T02:06:26.567Z,9.40
2022-11-10T02:08:54.740Z,9.39
2022-11-10T02:11:21.917Z,9.33
2022-11-10T02:13:48.964Z,9.37
2022-11-10T02:16:15.434Z,9.22
2022-11-10T02:18:41.882Z,9.17
2022-11-10T02:21:09.234Z,9.31
2022-11-10T02:23:35.489Z,9.38
2022-11-10T02:26:04.009Z,9.33
2022-11-10T02:28:34.431Z,9.36
2022-11-10T02:31:00.763Z,9.37
2022-11-10T02:33:27.073Z,9.46
2022-11-10T02:35:53.547Z,9.47
2022-11-10T02:38:19.958Z,9.45
2022-11-10T02:40:46.312Z,9.58
2022-11-10T02:43:14.667Z,9.63
2022-11-10T02:45:41.002Z,9.62
2022-11-10T02:48:08.367Z,9.63
2022-11-10T02:50:34.692Z,9.68
2022-11-10T02:53:01.048Z,9.74
2022-11-10T02:55:27.646Z,9.76
2022-11-10T02:57:53.969Z,9.77
2022-11-10T03:00:20.443Z,9.76
2022-11-10T03:02:46.823Z,9.76
2022-11-10T03:05:13.169Z,9.84
2022-11-10T03:07:39.506Z,9.92
2022-11-10T03:10:07.053Z,9.91
2022-11-10T03:12:33.393Z,9.84
2022-11-10T03:14:59.717Z,9.81
2022-11-10T03:17:26.015Z,9.87
2022-11-10T03:19:52.347Z,9.84
2022-11-10T03:22:18.648Z,9.95
2022-11-10T03:24:44.987Z,9.89
2022-11-10T03:27:11.323Z,9.88
2022-11-10T03:29:37.635Z,9.96
2022-11-10T03:32:03.968Z,9.91
2022-11-10T03:34:31.915Z,9.82
2022-11-10T03:36:58.397Z,9.84
2022-11-10T03:39:24.692Z,9.89
2022-11-10T03:41:51.008Z,9.91
2022-11-10T03:44:17.307Z,9.83
2022-11-10T03:46:43.705Z,9.73
2022-11-10T03:49:10.031Z,9.67
2022-11-10T03:51:36.378Z,9.72
2022-11-10T03:54:02.880Z,9.71
2022-11-10T03:56:29.193Z,9.70
2022-11-10T03:58:55.486Z,9.73
2022-11-10T04:01:21.882Z,9.76
2022-11-10T04:03:51.480Z,9.72
2022-11-10T04:06:18.550Z,9.75
2022-11-10T04:08:44.870Z,9.81
2022-11-10T04:11:11.164Z,9.83
2022-11-10T04:13:37.490Z,9.79
2022-11-10T04:16:03.794Z,9.73
2022-11-10T04:18:30.181Z,9.71
2022-11-10T04:21:01.475Z,9.74
2022-11-10T04:23:30.242Z,9.75
2022-11-10T04:26:02.226Z,9.75
2022-11-10T04:28:28.562Z,9.66
2022-11-10T04:30:54.869Z,9.66
2022-11-10T04:33:21.403Z,9.77
2022-11-10T04:35:47.882Z,9.78
2022-11-10T04:38:14.209Z,9.82
2022-11-10T04:40:40.517Z,9.85
2022-11-10T04:43:06.839Z,9.88
2022-11-10T04:45:34.409Z,9.87
2022-11-10T04:48:00.922Z,9.85
2022-11-10T04:50:27.262Z,9.76
2022-11-10T04:52:53.618Z,9.91
2022-11-10T04:55:20.541Z,9.85
2022-11-10T04:57:46.851Z,9.83
2022-11-10T05:00:13.738Z,9.70
2022-11-10T05:02:40.084Z,9.61
2022-11-10T05:05:06.799Z,9.52
2022-11-10T05:07:33.131Z,9.61
2022-11-10T05:09:59.430Z,9.72
2022-11-10T05:12:25.756Z,9.57
2022-11-10T05:14:52.059Z,9.57
2022-11-10T05:17:18.424Z,9.65
2022-11-10T05:19:44.735Z,9.64
2022-11-10T05:22:11.047Z,9.63
2022-11-10T05:24:37.361Z,9.67
2022-11-10T05:27:03.705Z,9.69
2022-11-10T05:29:30.035Z,9.65
2022-11-10T05:31:56.483Z,9.73
2022-11-10T05:34:22.951Z,9.73
2022-11-10T05:36:49.725Z,9.75
2022-11-10T05:39:16.027Z,9.74
2022-11-10T05:41:42.362Z,9.79
2022-11-10T05:44:08.771Z,9.92
2022-11-10T05:46:35.135Z,9.87
2022-11-10T05:49:01.575Z,9.87
2022-11-10T05:51:28.038Z,9.87
2022-11-10T05:53:54.379Z,9.80
2022-11-10T05:56:20.768Z,9.82
2022-11-10T05:58:47.075Z,9.80
2022-11-10T06:01:13.422Z,9.73
2022-11-10T06:03:39.849Z,9.75
2022-11-10T06:06:06.451Z,9.79
2022-11-10T06:08:32.916Z,9.89
2022-11-10T06:10:59.362Z,9.94
2022-11-10T06:13:25.959Z,9.95
2022-11-10T06:15:52.381Z,9.91
2022-11-10T06:18:18.735Z,9.92
2022-11-10T06:20:46.381Z,9.87
2022-11-10T06:23:14.121Z,9.81
2022-11-10T06:25:41.602Z,9.90
2022-11-10T06:28:09.447Z,9.99
2022-11-10T06:30:37.664Z,9.80
2022-11-10T06:33:04.506Z,9.85
2022-11-10T06:35:30.890Z,9.84
2022-11-10T06:38:07.031Z,9.80
2022-11-10T06:40:34.164Z,9.80
2022-11-10T06:43:01.329Z,9.77
2022-11-10T06:45:28.664Z,9.67
2022-11-10T06:48:06.303Z,9.66
2022-11-10T06:50:32.944Z,9.77
2022-11-10T06:53:00.218Z,9.81
2022-11-10T06:55:27.489Z,9.75
2022-11-10T06:57:53.809Z,9.82
2022-11-10T07:00:20.458Z,9.89
2022-11-10T07:02:46.788Z,9.91
2022-11-10T07:05:13.399Z,9.89
2022-11-10T07:07:39.703Z,9.89
2022-11-10T07:10:07.498Z,10.00
2022-11-10T07:12:34.233Z,9.94
2022-11-10T07:15:00.565Z,10.06
2022-11-10T07:17:26.889Z,10.14
2022-11-10T07:19:53.193Z,10.16
2022-11-10T07:22:19.496Z,10.11
2022-11-10T07:24:45.795Z,10.04
2022-11-10T07:27:12.104Z,10.23
2022-11-10T07:29:38.442Z,10.28
2022-11-10T07:32:04.948Z,10.16
2022-11-10T07:34:31.278Z,10.32
2022-11-10T07:36:57.646Z,10.32
2022-11-10T07:39:23.988Z,10.42
2022-11-10T07:41:52.706Z,10.37
2022-11-10T07:44:19.443Z,10.35
2022-11-10T07:46:45.787Z,10.49
2022-11-10T07:49:12.132Z,10.61
2022-11-10T07:51:38.487Z,10.56
2022-11-10T07:54:04.865Z,10.57
2022-11-10T07:56:31.208Z,10.66
2022-11-10T07:58:57.501Z,10.69
2022-11-10T08:01:23.875Z,10.60
2022-11-10T08:03:50.297Z,10.56
2022-11-10T08:06:16.656Z,10.52
2022-11-10T08:08:43.053Z,10.49
2022-11-10T08:11:09.367Z,10.58
2022-11-10T08:13:35.703Z,10.61
2022-11-10T08:16:02.033Z,10.51
2022-11-10T08:18:33.922Z,10.43
2022-11-10T08:21:02.122Z,10.55
2022-11-10T08:23:28.478Z,10.47
2022-11-10T08:25:58.593Z,10.53
2022-11-10T08:28:25.204Z,10.65
2022-11-10T08:30:51.934Z,10.58
2022-11-10T08:33:20.809Z,10.56
2022-11-10T08:35:49.691Z,10.63
2022-11-10T08:38:21.370Z,10.62
2022-11-10T08:40:48.183Z,10.66
2022-11-10T08:43:15.856Z,10.74
2022-11-10T08:45:44.476Z,10.76
2022-11-10T08:48:17.037Z,10.93
2022-11-10T08:50:43.948Z,10.90
2022-11-10T08:53:15.473Z,11.04
2022-11-10T08:55:43.185Z,11.16
2022-11-10T08:58:15.350Z,11.08
2022-11-10T09:00:42.354Z,11.06
2022-11-10T09:03:12.981Z,11.15
2022-11-10T09:05:40.056Z,11.36
2022-11-10T09:08:06.634Z,11.49
2022-11-10T09:10:35.755Z,11.59
2022-11-10T09:13:05.587Z,11.71
2022-11-10T09:15:34.186Z,11.69
2022-11-10T09:18:02.079Z,11.81
2022-11-10T09:20:31.235Z,11.90
2022-11-10T09:23:19.592Z,12.02
2022-11-10T09:25:54.819Z,12.11
2022-11-10T09:28:22.592Z,11.97
2022-11-10T09:30:51.133Z,11.87
2022-11-10T09:33:17.769Z,11.90
2022-11-10T09:35:44.133Z,12.10
2022-11-10T09:38:10.650Z,12.33
2022-11-10T09:40:58.144Z,12.33
2022-11-10T09:43:37.739Z,12.33
2022-11-10T09:46:15.705Z,12.23
2022-11-10T09:48:50.411Z,12.31
2022-11-10T09:51:23.813Z,12.36
2022-11-10T09:54:19.570Z,12.36
2022-11-10T09:56:45.953Z,12.38
2022-11-10T09:59:32.670Z,12.35
2022-11-10T10:02:13.920Z,12.44
2022-11-10T10:05:03.540Z,12.54
2022-11-10T10:08:07.300Z,12.70
2022-11-10T10:10:38.241Z,12.79
2022-11-10T10:13:31.179Z,12.80
2022-11-10T10:16:40.174Z,12.81
2022-11-10T10:19:28.101Z,12.91
2022-11-10T10:22:12.926Z,12.84
2022-11-10T10:24:39.901Z,12.98
2022-11-10T10:27:12.242Z,13.03
2022-11-10T10:29:46.491Z,12.91
2022-11-10T10:32:14.616Z,13.02
2022-11-10T10:34:43.105Z,13.16
2022-11-10T10:37:30.861Z,13.18
2022-11-10T10:39:57.229Z,13.12
2022-11-10T10:42:26.739Z,13.24
2022-11-10T10:45:18.286Z,13.08
2022-11-10T10:47:45.670Z,13.16
2022-11-10T10:50:28.007Z,13.11
2022-11-10T10:53:12.321Z,13.09
2022-11-10T10:55:44.746Z,13.09
2022-11-10T10:58:28.015Z,13.04
2022-11-10T11:01:01.777Z,13.02
2022-11-10T11:03:39.596Z,13.01
2022-11-10T11:06:19.399Z,13.29
2022-11-10T11:09:19.561Z,13.32
2022-11-10T11:12:00.187Z,13.41
2022-11-10T11:14:28.541Z,13.74
2022-11-10T11:17:13.966Z,13.90
2022-11-10T11:19:40.665Z,13.82
2022-11-10T11:22:24.282Z,13.86
2022-11-10T11:25:31.788Z,13.90
2022-11-10T11:28:14.028Z,14.10
2022-11-10T11:30:55.072Z,14.29
2022-11-10T11:33:32.610Z,14.33
2022-11-10T11:36:14.397Z,14.23
2022-11-10T11:38:51.043Z,14.43
2022-11-10T11:41:29.455Z,14.40
2022-11-10T11:44:37.803Z,14.37
2022-11-10T11:47:28.361Z,14.29
2022-11-10T11:50:16.243Z,14.44
2022-11-10T11:53:04.756Z,14.50
2022-11-10T11:55:49.546Z,14.57
2022-11-10T11:58:15.865Z,14.44
2022-11-10T12:00:57.229Z,14.30
2022-11-10T12:03:36.293Z,14.17
2022-11-10T12:06:19.590Z,14.19
2022-11-10T12:09:01.071Z,14.29
2022-11-10T12:11:36.202Z,14.43
2022-11-10T12:14:05.533Z,14.33
2022-11-10T12:16:34.009Z,14.39
2022-11-10T12:19:18.316Z,14.39
2022-11-10T12:22:21.866Z,14.35
2022-11-10T12:25:13.397Z,14.17
2022-11-10T12:27:46.000Z,14.29
2022-11-10T12:30:15.301Z,14.23
2022-11-10T12:32:59.974Z,14.27
2022-11-10T12:35:31.074Z,14.44
2022-11-10T12:38:06.767Z,14.56
2022-11-10T12:40:41.853Z,14.53
2022-11-10T12:43:29.877Z,14.41
2022-11-10T12:46:06.237Z,14.59
2022-11-10T12:49:04.842Z,14.82
2022-11-10T12:51:54.827Z,14.86
2022-11-10T12:54:25.565Z,14.98
2022-11-10T12:56:56.512Z,15.13
2022-11-10T12:59:28.514Z,15.17
2022-11-10T13:02:05.357Z,15.08
2022-11-10T13:04:33.315Z,14.89
2022-11-10T13:07:03.257Z,14.94
2022-11-10T13:09:36.413Z,14.77
2022-11-10T13:12:23.392Z,14.70
2022-11-10T13:14:49.904Z,14.66
2022-11-10T13:17:28.265Z,14.62
2022-11-10T13:19:59.003Z,14.66
2022-11-10T13:22:34.091Z,14.56
2022-11-10T13:25:37.587Z,14.54
2022-11-10T13:28:07.806Z,14.61
2022-11-10T13:30:45.502Z,14.57
2022-11-10T13:33:23.713Z,14.59
2022-11-10T13:35:55.331Z,14.54
2022-11-10T13:38:41.364Z,14.50
2022-11-10T13:41:16.917Z,14.45
2022-11-10T13:43:52.413Z,14.15
2022-11-10T13:46:20.025Z,13.96
2022-11-10T13:49:15.510Z,13.83
2022-11-10T13:52:02.488Z,13.64
2022-11-10T13:54:55.216Z,13.85
2022-11-10T13:57:24.282Z,13.93
2022-11-10T13:59:54.167Z,14.04
2022-11-10T14:02:36.840Z,14.18
2022-11-10T14:05:07.905Z,14.34
2022-11-10T14:07:42.431Z,14.20
2022-11-10T14:10:16.220Z,14.19
2022-11-10T14:13:01.580Z,14.10
2022-11-10T14:15:40.635Z,14.21
2022-11-10T14:18:25.164Z,14.12
2022-11-10T14:20:58.034Z,14.07
2022-11-10T14:23:53.213Z,13.89
2022-11-10T14:26:44.915Z,13.75
2022-11-10T14:29:40.619Z,13.70
2022-11-10T14:32:15.703Z,13.83
2022-11-10T14:34:47.328Z,13.81
2022-11-10T14:37:24.438Z,13.83
2022-11-10T14:39:56.840Z,13.82
2022-11-10T14:42:26.732Z,13.83
2022-11-10T14:45:23.081Z,13.80
2022-11-10T14:47:58.347Z,13.65
2022-11-10T14:50:30.926Z,13.69
2022-11-10T14:53:01.775Z,13.74
2022-11-10T14:55:30.772Z,13.55
2022-11-10T14:58:15.936Z,13.45
2022-11-10T15:00:44.278Z,13.41
2022-11-10T15:03:17.540Z,13.26
2022-11-10T15:05:44.495Z,13.19
2022-11-10T15:08:12.308Z,13.05
2022-11-10T15:10:45.472Z,13.01
2022-11-10T15:13:11.790Z,12.91
2022-11-10T15:15:38.998Z,12.87
2022-11-10T15:18:06.049Z,12.94
2022-11-10T15:20:41.446Z,12.65
2022-11-10T15:23:32.083Z,12.59
2022-11-10T15:25:59.790Z,12.50
2022-11-10T15:28:36.516Z,12.40
2022-11-10T15:31:09.832Z,12.34
2022-11-10T15:33:38.129Z,12.38
2022-11-10T15:36:17.813Z,12.28
2022-11-10T15:38:44.551Z,12.24
2022-11-10T15:41:13.884Z,12.18
2022-11-10T15:43:40.636Z,12.19
2022-11-10T15:46:19.632Z,12.13
2022-11-10T15:48:48.893Z,12.08
2022-11-10T15:51:36.601Z,11.96
2022-11-10T15:54:02.992Z,11.88
2022-11-10T15:56:29.389Z,11.83
2022-11-10T15:59:01.643Z,11.66
2022-11-10T16:01:30.222Z,11.50
2022-11-10T16:03:57.106Z,11.41
2022-11-10T16:06:23.514Z,11.28
2022-11-10T16:08:49.902Z,11.19
2022-11-10T16:11:21.404Z,11.09
2022-11-10T16:13:49.579Z,11.05
2022-11-10T16:16:17.119Z,10.95
2022-11-10T16:18:44.069Z,10.83
2022-11-10T16:21:19.125Z,10.77
2022-11-10T16:23:46.847Z,10.72
2022-11-10T16:26:15.583Z,10.59
2022-11-10T16:28:42.089Z,10.58
2022-11-10T16:31:10.059Z,10.53
2022-11-10T16:33:36.542Z,10.45
2022-11-10T16:36:03.852Z,10.42
2022-11-10T16:38:31.986Z,10.34
2022-11-10T16:41:00.312Z,10.26
2022-11-10T16:43:27.713Z,10.19
2022-11-10T16:45:57.454Z,10.20
2022-11-10T16:48:30.462Z,10.09
2022-11-10T16:51:00.231Z,10.08
2022-11-10T16:53:28.707Z,10.01
2022-11-10T16:55:55.091Z,10.02
2022-11-10T16:58:21.878Z,9.96
2022-11-10T17:00:48.675Z,10.01
2022-11-10T17:03:31.611Z,9.95
2022-11-10T17:05:59.106Z,9.98
2022-11-10T17:08:30.210Z,9.95
2022-11-10T17:10:56.783Z,9.95
2022-11-10T17:13:24.162Z,9.94
2022-11-10T17:15:53.557Z,9.93
2022-11-10T17:18:22.840Z,9.96
2022-11-10T17:20:52.974Z,10.01
2022-11-10T17:23:22.921Z,9.94
2022-11-10T17:25:50.820Z,10.00
2022-11-10T17:28:18.571Z,10.02
2022-11-10T17:30:45.672Z,10.03
2022-11-10T17:33:12.137Z,9.99
2022-11-10T17:35:45.409Z,10.00
2022-11-10T17:38:18.156Z,10.01
2022-11-10T17:40:44.527Z,9.95
2022-11-10T17:43:14.280Z,9.90
2022-11-10T17:45:41.016Z,9.83
2022-11-10T17:48:07.855Z,9.79
2022-11-10T17:50:36.056Z,9.73
2022-11-10T17:53:06.629Z,9.65
2022-11-10T17:55:34.550Z,9.63
2022-11-10T17:58:01.151Z,9.58
2022-11-10T18:00:27.540Z,9.55
2022-11-10T18:02:55.294Z,9.55
2022-11-10T18:05:21.948Z,9.49
2022-11-10T18:07:51.550Z,9.50
2022-11-10T18:10:17.908Z,9.46
2022-11-10T18:12:44.507Z,9.45
2022-11-10T18:15:15.818Z,9.44
2022-11-10T18:17:42.760Z,9.43
2022-11-10T18:20:13.534Z,9.50
2022-11-10T18:22:40.484Z,9.58
2022-11-10T18:25:08.155Z,9.63
2022-11-10T18:27:34.819Z,9.61
2022-11-10T18:30:01.265Z,9.63
2022-11-10T18:32:27.815Z,9.74
2022-11-10T18:34:54.168Z,9.78
2022-11-10T18:37:20.554Z,9.77
2022-11-10T18:39:47.037Z,9.89
2022-11-10T18:42:13.790Z,9.90
2022-11-10T18:44:40.244Z,10.04
2022-11-10T18:47:07.864Z,10.10
2022-11-10T18:49:34.257Z,10.20
2022-11-10T18:52:00.700Z,10.05
2022-11-10T18:54:27.477Z,10.10
2022-11-10T18:56:54.026Z,10.17
2022-11-10T18:59:20.446Z,10.22
2022-11-10T19:01:46.880Z,10.18
2022-11-10T19:04:13.971Z,10.05
2022-11-10T19:06:40.881Z,9.95
2022-11-10T19:09:07.333Z,9.93
2022-11-10T19:11:34.323Z,9.98
2022-11-10T19:14:00.831Z,10.04
2022-11-10T19:16:28.190Z,10.10
2022-11-10T19:18:55.144Z,10.07
2022-11-10T19:21:24.583Z,10.06
2022-11-10T19:23:55.398Z,9.96
2022-11-10T19:26:23.008Z,10.20
2022-11-10T19:28:49.744Z,10.13
2022-11-10T19:31:18.247Z,10.07
2022-11-10T19:33:46.276Z,10.07
2022-11-10T19:36:15.118Z,9.96
2022-11-10T19:38:41.944Z,9.95
2022-11-10T19:41:11.436Z,9.91
2022-11-10T19:43:38.374Z,9.91
2022-11-10T19:46:07.588Z,9.96
2022-11-10T19:48:34.611Z,9.92
2022-11-10T19:51:03.453Z,9.96
2022-11-10T19:53:30.359Z,10.02
2022-11-10T19:56:02.113Z,10.01
2022-11-10T19:58:28.455Z,9.99
2022-11-10T20:00:55.037Z,9.90
2022-11-10T20:03:22.372Z,9.90
2022-11-10T20:06:10.206Z,9.90
2022-11-10T20:08:37.292Z,9.89
2022-11-10T20:11:11.900Z,9.89
2022-11-10T20:13:38.556Z,9.82
2022-11-10T20:16:06.669Z,9.80
2022-11-10T20:18:33.793Z,9.82
2022-11-10T20:21:04.520Z,9.76
2022-11-10T20:23:30.914Z,9.83
2022-11-10T20:26:12.717Z,9.81
2022-11-10T20:28:39.515Z,9.78
2022-11-10T20:31:12.159Z,9.73
2022-11-10T20:33:38.897Z,9.82
2022-11-10T20:36:15.990Z,9.79
2022-11-10T20:38:45.450Z,9.73
2022-11-10T20:41:14.714Z,9.64
2022-11-10T20:43:41.250Z,9.61
2022-11-10T20:46:33.296Z,9.59
2022-11-10T20:49:01.914Z,9.57
2022-11-10T20:51:28.329Z,9.64
2022-11-10T20:53:54.706Z,9.54
2022-11-10T20:56:25.338Z,9.58
2022-11-10T20:58:54.840Z,9.47
2022-11-10T21:01:21.269Z,9.61
2022-11-10T21:03:47.738Z,9.63
2022-11-10T21:06:14.254Z,9.55
2022-11-10T21:08:40.669Z,9.49
2022-11-10T21:11:07.082Z,9.55
2022-11-10T21:13:34.028Z,9.61
2022-11-10T21:16:02.095Z,9.50
2022-11-10T21:18:31.167Z,9.43
2022-11-10T21:20:57.525Z,9.49
2022-11-10T21:23:24.225Z,9.53
2022-11-10T21:25:56.689Z,9.58
2022-11-10T21:28:23.487Z,9.51
2022-11-10T21:30:50.128Z,9.45
2022-11-10T21:33:16.910Z,9.43
2022-11-10T21:35:43.299Z,9.39
2022-11-10T21:38:13.288Z,9.30
2022-11-10T21:40:39.742Z,9.35
2022-11-10T21:43:06.146Z,9.28
2022-11-10T21:45:32.508Z,9.24
2022-11-10T21:48:03.106Z,9.17
2022-11-10T21:50:29.590Z,9.24
2022-11-10T21:52:55.990Z,9.32
2022-11-10T21:55:22.387Z,9.24
2022-11-10T21:57:48.780Z,9.14
2022-11-10T22:00:15.465Z,9.22
2022-11-10T22:02:41.897Z,9.18
2022-11-10T22:05:08.493Z,9.21
2022-11-10T22:07:37.642Z,9.18
2022-11-10T22:10:04.290Z,9.16
2022-11-10T22:12:30.786Z,9.14
2022-11-10T22:14:57.205Z,9.04
2022-11-10T22:17:23.541Z,8.96
2022-11-10T22:19:49.908Z,8.95
2022-11-10T22:22:16.290Z,8.99
2022-11-10T22:24:42.752Z,8.92
2022-11-10T22:27:09.142Z,8.79
2022-11-10T22:29:35.547Z,8.87
2022-11-10T22:32:02.388Z,8.80
2022-11-10T22:34:28.843Z,8.90
2022-11-10T22:36:55.227Z,8.93
2022-11-10T22:39:21.657Z,8.85
2022-11-10T22:41:48.199Z,8.83
2022-11-10T22:44:14.600Z,8.76
2022-11-10T22:46:44.522Z,8.80
2022-11-10T22:49:12.516Z,8.78
2022-11-10T22:51:38.875Z,8.67
2022-11-10T22:54:08.983Z,8.70
2022-11-10T22:56:35.433Z,8.57
2022-11-10T22:59:02.232Z,8.65
2022-11-10T23:01:28.902Z,8.77
2022-11-10T23:03:59.542Z,8.70
2022-11-10T23:06:26.796Z,8.76
2022-11-10T23:08:53.500Z,8.89
2022-11-10T23:11:24.568Z,8.92
2022-11-10T23:13:51.389Z,8.85
2022-11-10T23:16:20.710Z,8.85
2022-11-10T23:18:48.826Z,8.81
2022-11-10T23:21:17.410Z,8.79
2022-11-10T23:23:45.121Z,8.74
2022-11-10T23:26:14.352Z,8.68
2022-11-10T23:28:41.069Z,8.62
2022-11-10T23:31:25.827Z,8.44
2022-11-10T23:33:56.492Z,8.51
2022-11-10T23:36:24.323Z,8.61
2022-11-10T23:38:50.706Z,8.66
2022-11-10T23:41:21.755Z,8.55
2022-11-10T23:43:48.112Z,8.64
2022-11-10T23:46:15.100Z,8.51
2022-11-10T23:48:42.139Z,8.50
2022-11-10T23:51:11.605Z,8.32
2022-11-10T23:53:38.080Z,8.31
2022-11-10T23:56:07.110Z,8.30
2022-11-10T23:58:33.581Z,8.26
